createdAt,value
2018-05-16T00:02:32.116Z,90.10
2018-05-16T00:07:25.810Z,88.80
2018-05-16T00:12:19.576Z,88.50
2018-05-16T00:17:13.378Z,88.70
2018-05-16T00:22:07.787Z,88.90
2018-05-16T00:27:02.177Z,88.10
2018-05-16T00:31:55.840Z,88.00
2018-05-16T00:36:49.837Z,89.20
2018-05-16T00:41:43.589Z,88.90
2018-05-16T00:46:37.162Z,89.70
2018-05-16T00:51:32.723Z,88.70
2018-05-16T01:05:34.474Z,88.20
2018-05-16T01:10:28.129Z,88.90
2018-05-16T01:24:29.595Z,89.00
2018-05-16T01:38:32.102Z,89.50
2018-05-16T01:43:25.689Z,90.10
2018-05-16T01:48:19.244Z,90.10
2018-05-16T01:53:13.170Z,90.00
2018-05-16T01:58:06.901Z,89.90
2018-05-16T02:03:00.524Z,90.00
2018-05-16T02:07:53.981Z,90.10
2018-05-16T02:12:47.625Z,89.30
2018-05-16T02:17:41.124Z,89.80
2018-05-16T02:22:34.767Z,90.20
2018-05-16T02:27:28.816Z,90.20
2018-05-16T02:32:23.090Z,89.60
2018-05-16T02:37:16.686Z,89.50
2018-05-16T02:42:10.159Z,90.10
2018-05-16T02:47:03.669Z,90.00
2018-05-16T02:51:57.255Z,90.00
2018-05-16T02:56:50.862Z,88.90
2018-05-16T03:01:44.395Z,87.40
2018-05-16T03:06:37.926Z,85.50
2018-05-16T03:11:31.435Z,88.30
2018-05-16T03:16:24.959Z,89.00
2018-05-16T03:21:18.518Z,89.40
2018-05-16T03:26:12.186Z,89.40
2018-05-16T03:31:05.706Z,88.20
2018-05-16T03:45:07.915Z,87.90
2018-05-16T03:50:01.540Z,86.30
2018-05-16T03:54:55.016Z,84.60
2018-05-16T04:00:06.141Z,83.70
2018-05-16T04:04:59.799Z,85.00
2018-05-16T04:09:53.346Z,84.20
2018-05-16T04:14:47.083Z,84.00
2018-05-16T04:19:40.588Z,84.60
2018-05-16T04:24:34.151Z,84.50
2018-05-16T04:29:28.955Z,86.60
2018-05-16T04:34:23.236Z,86.40
2018-05-16T04:39:16.759Z,86.20
2018-05-16T04:44:10.275Z,86.30
2018-05-16T04:49:03.868Z,87.10
2018-05-16T04:53:57.417Z,88.30
2018-05-16T04:58:51.724Z,88.60
2018-05-16T05:03:46.083Z,88.80
2018-05-16T05:08:39.576Z,88.80
2018-05-16T05:13:33.423Z,87.80
2018-05-16T05:18:26.982Z,87.60
2018-05-16T05:23:20.455Z,87.20
2018-05-16T05:28:14.015Z,87.50
2018-05-16T05:33:07.639Z,86.30
2018-05-16T05:38:01.234Z,86.70
2018-05-16T05:42:55.623Z,85.30
2018-05-16T05:47:50.173Z,85.20
2018-05-16T05:52:43.884Z,85.20
2018-05-16T05:57:37.439Z,83.60
2018-05-16T06:02:31.245Z,84.60
2018-05-16T06:07:25.956Z,84.50
2018-05-16T06:12:19.704Z,83.80
2018-05-16T06:17:17.653Z,82.70
2018-05-16T06:22:11.153Z,83.10
2018-05-16T06:27:04.801Z,84.90
2018-05-16T06:31:58.228Z,86.30
2018-05-16T06:36:52.726Z,87.80
2018-05-16T06:41:46.995Z,87.90
2018-05-16T06:46:40.464Z,87.80
2018-05-16T06:51:35.500Z,88.50
2018-05-16T06:56:29.048Z,88.90
2018-05-16T07:01:23.334Z,89.30
2018-05-16T07:06:16.839Z,88.90
2018-05-16T07:11:10.368Z,89.60
2018-05-16T07:16:04.667Z,89.50
2018-05-16T07:20:58.339Z,89.60
2018-05-16T07:25:52.695Z,89.60
2018-05-16T07:30:46.910Z,90.00
2018-05-16T07:35:40.423Z,90.00
2018-05-16T07:40:33.986Z,89.70
2018-05-16T07:45:28.076Z,89.70
2018-05-16T07:50:23.351Z,88.70
2018-05-16T07:55:20.728Z,88.80
2018-05-16T08:00:28.046Z,88.20
2018-05-16T08:10:53.482Z,88.40
2018-05-16T08:15:48.097Z,88.40
2018-05-16T08:20:43.369Z,86.80
2018-05-16T08:31:08.458Z,87.60
2018-05-16T08:36:03.017Z,86.00
2018-05-16T08:40:57.183Z,85.70
2018-05-16T08:45:51.351Z,85.30
2018-05-16T08:50:46.928Z,85.10
2018-05-16T08:55:40.626Z,85.00
2018-05-16T09:00:35.412Z,84.80
2018-05-16T09:05:29.014Z,83.10
2018-05-16T09:10:33.414Z,81.40
2018-05-16T09:15:30.976Z,80.00
2018-05-16T09:20:28.193Z,77.80
2018-05-16T09:30:52.891Z,74.30
2018-05-16T09:35:46.907Z,73.10
2018-05-16T09:40:41.826Z,68.70
2018-05-16T09:45:37.247Z,67.00
2018-05-16T09:56:03.212Z,67.30
2018-05-16T10:00:56.916Z,65.80
2018-05-16T10:11:21.152Z,67.10
2018-05-16T10:16:15.926Z,67.10
2018-05-16T10:26:39.598Z,68.50
2018-05-16T10:31:34.799Z,68.40
2018-05-16T10:36:31.243Z,71.20
2018-05-16T10:41:25.881Z,71.20
2018-05-16T10:46:20.602Z,71.10
2018-05-16T10:51:14.591Z,72.60
2018-05-16T10:56:21.889Z,70.60
2018-05-16T11:06:48.664Z,70.80
2018-05-16T11:11:43.079Z,69.50
2018-05-16T11:16:39.030Z,70.10
2018-05-16T11:21:33.537Z,70.10
2018-05-16T11:26:31.566Z,75.60
2018-05-16T11:31:27.335Z,78.10
2018-05-16T11:41:24.117Z,80.00
2018-05-16T11:46:19.566Z,78.50
2018-05-16T11:56:17.551Z,79.90
2018-05-16T12:01:13.213Z,79.40
2018-05-16T12:06:11.184Z,79.40
2018-05-16T12:16:41.823Z,76.60
2018-05-16T12:21:41.508Z,76.30
2018-05-16T12:26:46.131Z,75.20
2018-05-16T12:31:46.354Z,74.10
2018-05-16T12:36:42.395Z,74.10
2018-05-16T12:41:42.787Z,76.00
2018-05-16T12:52:10.512Z,78.70
2018-05-16T12:57:06.075Z,76.70
2018-05-16T13:01:59.949Z,76.50
2018-05-16T13:06:56.431Z,78.20
2018-05-16T13:11:54.656Z,78.30
2018-05-16T13:16:53.917Z,80.20
2018-05-16T13:21:52.869Z,80.10
2018-05-16T13:27:00.876Z,79.60
2018-05-16T13:37:12.245Z,79.60
2018-05-16T13:42:13.283Z,80.20
2018-05-16T13:47:14.980Z,81.30
2018-05-16T13:52:13.605Z,81.00
2018-05-16T13:57:15.285Z,80.20
2018-05-16T14:02:13.730Z,80.20
2018-05-16T14:07:14.780Z,83.00
2018-05-16T14:12:13.824Z,82.20
2018-05-16T14:17:18.613Z,83.40
2018-05-16T14:27:46.577Z,83.50
2018-05-16T14:32:49.991Z,82.40
2018-05-16T14:37:45.412Z,84.40
2018-05-16T14:42:40.891Z,84.40
2018-05-16T14:47:34.705Z,82.70
2018-05-16T14:52:30.120Z,85.10
2018-05-16T14:57:25.161Z,83.30
2018-05-16T15:02:19.275Z,83.30
2018-05-16T15:07:12.902Z,81.20
2018-05-16T15:12:06.819Z,79.90
2018-05-16T15:17:04.914Z,79.90
2018-05-16T15:21:59.813Z,81.60
2018-05-16T15:26:54.364Z,81.50
2018-05-16T15:31:48.210Z,82.70
2018-05-16T15:41:41.092Z,84.00
2018-05-16T15:46:36.330Z,84.00
2018-05-16T15:51:30.854Z,82.00
2018-05-16T15:56:24.565Z,82.70
2018-05-16T16:01:18.220Z,83.60
2018-05-16T16:06:12.654Z,85.60
2018-05-16T16:11:08.170Z,84.90
2018-05-16T16:16:02.151Z,84.80
2018-05-16T16:20:56.286Z,84.70
2018-05-16T16:25:51.856Z,82.50
2018-05-16T16:30:45.640Z,84.20
2018-05-16T16:41:10.925Z,83.80
2018-05-16T16:46:06.584Z,84.40
2018-05-16T16:51:00.065Z,84.40
2018-05-16T16:55:53.535Z,84.00
2018-05-16T17:00:47.082Z,82.90
2018-05-16T17:05:40.610Z,83.70
2018-05-16T17:10:34.294Z,81.40
2018-05-16T17:15:27.788Z,83.20
2018-05-16T17:20:21.913Z,83.70
2018-05-16T17:25:16.242Z,82.60
2018-05-16T17:30:09.762Z,84.30
2018-05-16T17:35:03.943Z,85.60
2018-05-16T17:39:58.155Z,84.50
2018-05-16T17:44:51.873Z,83.70
2018-05-16T17:49:46.203Z,83.70
2018-05-16T17:54:39.891Z,84.60
2018-05-16T17:59:33.372Z,84.00
2018-05-16T18:04:26.847Z,83.30
2018-05-16T18:09:21.227Z,84.10
2018-05-16T18:20:15.662Z,83.70
2018-05-16T18:25:10.067Z,85.20
2018-05-16T18:30:04.965Z,87.30
2018-05-16T18:34:59.808Z,86.40
2018-05-16T18:39:54.334Z,86.30
2018-05-16T18:44:48.130Z,88.10
2018-05-16T18:49:42.982Z,88.40
2018-05-16T18:54:37.482Z,88.10
2018-05-16T18:59:31.258Z,88.50
2018-05-16T19:04:25.712Z,89.60
2018-05-16T19:09:19.451Z,89.90
2018-05-16T19:14:13.205Z,89.90
2018-05-16T19:28:17.369Z,90.20
2018-05-16T19:33:11.762Z,90.80
2018-05-16T19:38:05.462Z,90.60
2018-05-16T19:42:59.190Z,90.20
2018-05-16T19:47:52.976Z,90.50
2018-05-16T19:52:47.981Z,91.20
2018-05-16T19:57:43.544Z,91.20
2018-05-16T20:02:38.052Z,91.60
2018-05-16T20:07:31.751Z,91.60
2018-05-16T20:12:26.446Z,91.80
2018-05-16T20:17:20.180Z,92.20
2018-05-16T20:22:15.143Z,92.10
2018-05-16T20:27:08.872Z,92.60
2018-05-16T20:32:03.519Z,92.50
2018-05-16T20:36:57.749Z,92.40
2018-05-16T20:41:52.353Z,92.50
2018-05-16T20:46:46.149Z,92.30
2018-05-16T20:51:39.847Z,91.80
2018-05-16T20:56:33.563Z,91.50
2018-05-16T21:01:27.226Z,92.10
2018-05-16T21:06:23.061Z,92.10
2018-05-16T21:11:17.421Z,91.80
2018-05-16T21:16:11.196Z,92.00
2018-05-16T21:21:05.687Z,92.50
2018-05-16T21:25:59.422Z,92.40
2018-05-16T21:30:55.916Z,92.20
2018-05-16T21:35:49.660Z,92.70
2018-05-16T21:40:43.595Z,92.30
2018-05-16T21:45:38.239Z,91.90
2018-05-16T21:50:32.099Z,92.20
2018-05-16T21:55:25.881Z,92.00
2018-05-16T22:00:20.926Z,92.20
2018-05-16T22:05:15.106Z,92.20
2018-05-16T22:10:08.910Z,92.40
2018-05-16T22:15:03.484Z,92.60
2018-05-16T22:19:57.186Z,93.00
2018-05-16T22:24:51.592Z,92.70
2018-05-16T22:29:45.403Z,92.70
2018-05-16T22:34:45.377Z,92.20
2018-05-16T22:39:44.753Z,92.20
2018-05-16T22:44:39.545Z,92.10
2018-05-16T22:49:33.623Z,92.00
2018-05-16T22:54:28.928Z,91.60
2018-05-16T22:59:22.922Z,91.60
2018-05-16T23:04:17.572Z,91.50
2018-05-16T23:09:11.943Z,91.50
2018-05-16T23:14:05.795Z,91.60
2018-05-16T23:18:59.618Z,91.80
2018-05-16T23:23:57.766Z,91.80
2018-05-16T23:28:52.478Z,91.70
2018-05-16T23:33:46.435Z,91.70
2018-05-16T23:38:41.066Z,91.80
2018-05-16T23:43:34.895Z,92.00
2018-05-16T23:48:28.664Z,92.00
2018-05-16T23:53:22.647Z,92.30
2018-05-16T23:58:17.237Z,92.20
